Time;durP1;ratioP1;P1;durP2;ratioP2;P2;SDS_P1;SDS_P2;PMS_P1;PMS_P2;Temp;Humidity;BMP_temperature;BMP_pressure;BME280_temperature;BME280_humidity;BME280_pressure;Samples;Min_cycle;Max_cycle;Signal;HPM_P1;HPM_P2
2023/04/14 00:02:04;;;;;;;;;;;;;;;23.82;44.25;95986.65;620339;228;64837;-60
2023/04/14 00:04:31;;;;;;;;;;;;;;;23.82;42.73;95986.65;618916;229;65189;-60
2023/04/14 00:06:59;;;;;;;;;;;;;;;23.81;41.51;95979.69;620978;228;65110;-60
2023/04/14 00:09:27;;;;;;;;;;;;;;;23.80;43.61;95983.48;619508;229;65208;-60
2023/04/14 00:11:56;;;;;;;;;;;;;;;23.81;41.56;95981.58;619273;229;64968;-60
2023/04/14 00:14:23;;;;;;;;;;;;;;;23.79;41.84;95978.42;620423;228;65006;-60
2023/04/14 00:16:51;;;;;;;;;;;;;;;23.80;44.40;95982.70;620012;228;67085;-60
2023/04/14 00:19:18;;;;;;;;;;;;;;;23.79;42.21;95981.09;620578;228;66916;-60
2023/04/14 00:21:46;;;;;;;;;;;;;;;23.78;41.18;95979.53;618324;229;65107;-60
2023/04/14 00:24:13;;;;;;;;;;;;;;;23.78;42.52;95976.84;618951;229;67221;-60
2023/04/14 00:26:41;;;;;;;;;;;;;;;23.77;42.87;95978.75;619215;228;66890;-60
2023/04/14 00:29:08;;;;;;;;;;;;;;;23.76;44.69;95976.36;618889;228;65016;-60
2023/04/14 00:31:36;;;;;;;;;;;;;;;23.75;43.21;95983.63;618896;228;67268;-60
2023/04/14 00:34:03;;;;;;;;;;;;;;;23.74;41.17;95979.38;618321;229;65167;-60
2023/04/14 00:36:31;;;;;;;;;;;;;;;23.75;43.87;95980.95;618328;229;65120;-60
2023/04/14 00:38:59;;;;;;;;;;;;;;;23.74;43.75;95974.02;618310;229;64968;-60
2023/04/14 00:41:26;;;;;;;;;;;;;;;23.73;43.42;95967.05;618338;229;64949;-60
2023/04/14 00:43:54;;;;;;;;;;;;;;;23.74;44.09;95965.18;618338;229;63002;-60
2023/04/14 00:46:21;;;;;;;;;;;;;;;23.72;42.76;95968.16;618714;229;67136;-60
2023/04/14 00:48:49;;;;;;;;;;;;;;;23.72;41.01;95962.02;618512;229;66722;-60
2023/04/14 00:51:17;;;;;;;;;;;;;;;23.72;42.68;95972.74;618317;229;64871;-60
2023/04/14 00:53:44;;;;;;;;;;;;;;;23.70;43.97;95963.06;618355;229;66535;-60
2023/04/14 00:56:12;;;;;;;;;;;;;;;23.68;41.71;95961.80;618380;229;66789;-60
2023/04/14 00:58:40;;;;;;;;;;;;;;;23.69;42.11;95966.08;619156;229;62812;-60
2023/04/14 01:01:08;;;;;;;;;;;;;;;23.68;44.50;95965.30;619069;228;66953;-60
2023/04/14 01:03:36;;;;;;;;;;;;;;;23.67;41.49;95963.70;618626;229;64338;-60
2023/04/14 01:06:04;;;;;;;;;;;;;;;23.67;44.16;95963.70;619320;229;63105;-60
2023/04/14 01:08:32;;;;;;;;;;;;;;;23.66;45.02;95959.45;618697;228;66728;-60
2023/04/14 01:11:13;;;;;;;;;;;;;;;23.66;44.75;95954.09;618393;229;64822;-60
2023/04/14 01:13:58;;;;;;;;;;;;;;;23.65;42.79;95959.75;620166;228;65071;-60
2023/04/14 01:16:31;;;;;;;;;;;;;;;23.65;39.92;95955.20;619488;228;67276;-60
2023/04/14 01:19:18;;;;;;;;;;;;;;;23.65;43.83;95957.06;618584;228;67037;-60
2023/04/14 01:21:49;;;;;;;;;;;;;;;23.64;43.16;95958.97;618545;229;65746;-60
2023/04/14 01:24:19;;;;;;;;;;;;;;;23.63;45.83;95959.30;620476;228;67959;-60
2023/04/14 01:26:47;;;;;;;;;;;;;;;23.60;41.68;95960.71;621163;227;64966;-60
2023/04/14 01:29:32;;;;;;;;;;;;;;;23.59;43.24;95953.75;620914;228;65081;-60
2023/04/14 01:32:04;;;;;;;;;;;;;;;23.59;44.08;95961.80;621565;228;64678;-60
2023/04/14 01:34:34;;;;;;;;;;;;;;;23.59;43.01;95950.28;621129;228;46950;-60
2023/04/14 01:37:07;;;;;;;;;;;;;;;23.58;42.96;95952.18;619032;228;62867;-60
2023/04/14 01:39:51;;;;;;;;;;;;;;;23.58;43.47;95954.08;618188;229;67172;-60
2023/04/14 01:42:20;;;;;;;;;;;;;;;23.57;44.23;95947.93;618698;229;67017;-58
2023/04/14 01:44:49;;;;;;;;;;;;;;;23.55;41.87;95955.48;618642;228;65730;-60
2023/04/14 01:47:18;;;;;;;;;;;;;;;23.55;41.91;95949.34;618842;228;65541;-60
2023/04/14 01:49:46;;;;;;;;;;;;;;;23.55;45.02;95950.12;618499;229;67708;-60
2023/04/14 01:52:15;;;;;;;;;;;;;;;23.55;43.61;95954.70;618999;228;64864;-60
2023/04/14 01:54:45;;;;;;;;;;;;;;;23.55;44.92;95960.07;618554;228;67275;-60
2023/04/14 01:57:14;;;;;;;;;;;;;;;23.54;43.98;95947.74;618256;229;67271;-60
2023/04/14 01:59:43;;;;;;;;;;;;;;;23.54;43.67;95947.74;618505;229;63031;-60
2023/04/14 02:02:12;;;;;;;;;;;;;;;23.53;43.88;95954.22;619248;229;67186;-60
2023/04/14 02:04:41;;;;;;;;;;;;;;;23.53;40.81;95952.33;619074;229;67694;-60
2023/04/14 02:07:11;;;;;;;;;;;;;;;23.51;43.30;95946.48;620963;228;65115;-60
2023/04/14 02:09:40;;;;;;;;;;;;;;;23.51;43.28;95937.65;618361;229;64607;-60
2023/04/14 02:12:09;;;;;;;;;;;;;;;23.51;45.67;95932.28;618590;229;67146;-60
2023/04/14 02:14:38;;;;;;;;;;;;;;;23.49;44.67;95932.61;618608;229;65201;-60
2023/04/14 02:17:07;;;;;;;;;;;;;;;23.51;43.61;95940.33;618833;228;65199;-60
2023/04/14 02:19:36;;;;;;;;;;;;;;;23.48;44.56;95939.84;618957;229;67411;-60
2023/04/14 02:22:03;;;;;;;;;;;;;;;23.49;45.53;95935.30;618723;228;65023;-60
2023/04/14 02:24:31;;;;;;;;;;;;;;;23.48;45.77;95939.06;618340;229;64984;-60
2023/04/14 02:27:02;;;;;;;;;;;;;;;23.47;44.68;95935.59;618837;229;67558;-60
2023/04/14 02:29:31;;;;;;;;;;;;;;;23.45;40.07;95935.11;615782;228;62388;-60
2023/04/14 02:32:00;;;;;;;;;;;;;;;23.46;45.05;95920.62;618983;229;65117;-60
2023/04/14 02:34:29;;;;;;;;;;;;;;;23.47;44.36;95929.45;618982;229;67053;-60
2023/04/14 02:36:59;;;;;;;;;;;;;;;23.46;44.95;95919.80;618920;229;65681;-56
2023/04/14 02:39:33;;;;;;;;;;;;;;;23.45;44.10;95923.60;618358;228;67391;-60
2023/04/14 02:42:04;;;;;;;;;;;;;;;23.45;44.22;95923.60;618641;229;67024;-60
2023/04/14 02:44:36;;;;;;;;;;;;;;;23.44;41.97;95925.50;618985;229;68092;-60
2023/04/14 02:47:06;;;;;;;;;;;;;;;23.43;43.11;95921.22;619202;228;67195;-60
2023/04/14 02:49:43;;;;;;;;;;;;;;;23.43;43.84;95917.75;618328;229;44354;-60
2023/04/14 02:52:12;;;;;;;;;;;;;;;23.42;42.76;95919.66;618654;229;64945;-59
2023/04/14 02:54:42;;;;;;;;;;;;;;;23.42;44.79;95918.87;620877;228;67508;-60
2023/04/14 02:57:10;;;;;;;;;;;;;;;23.40;45.95;95921.84;618741;228;66901;-59
2023/04/14 02:59:41;;;;;;;;;;;;;;;23.40;44.67;95921.06;618585;229;43344;-59
2023/04/14 03:02:11;;;;;;;;;;;;;;;23.39;41.65;95927.54;618724;228;67243;-60
2023/04/14 03:04:40;;;;;;;;;;;;;;;23.39;42.43;95919.50;618789;229;45341;-60
2023/04/14 03:07:11;;;;;;;;;;;;;;;23.38;41.29;95917.90;618353;228;42369;-59
2023/04/14 03:09:39;;;;;;;;;;;;;;;23.38;45.21;95917.90;618983;229;67280;-59
2023/04/14 03:12:11;;;;;;;;;;;;;;;23.37;46.94;95922.48;618954;229;66033;-59
2023/04/14 03:14:38;;;;;;;;;;;;;;;23.36;41.65;95912.87;618895;229;62943;-59
2023/04/14 03:17:06;;;;;;;;;;;;;;;23.37;44.56;95922.48;619401;228;64849;-59
2023/04/14 03:19:35;;;;;;;;;;;;;;;23.36;45.97;95920.91;618860;228;67672;-59
2023/04/14 03:22:04;;;;;;;;;;;;;;;23.36;46.13;95914.77;618402;229;63228;-59
2023/04/14 03:24:33;;;;;;;;;;;;;;;23.35;43.77;95915.84;619057;229;67213;-59
2023/04/14 03:27:02;;;;;;;;;;;;;;;23.35;45.24;95913.16;621668;228;67584;-59
2023/04/14 03:29:32;;;;;;;;;;;;;;;23.34;43.99;95908.92;611776;227;68607;-59
2023/04/14 03:32:01;;;;;;;;;;;;;;;23.34;40.97;95906.23;623016;226;67336;-59
2023/04/14 03:34:30;;;;;;;;;;;;;;;23.34;44.58;95898.20;623871;227;65008;-60
2023/04/14 03:36:58;;;;;;;;;;;;;;;23.34;44.25;95900.87;623890;227;65200;-59
2023/04/14 03:39:26;;;;;;;;;;;;;;;23.31;43.28;95894.24;620897;227;67219;-59
2023/04/14 03:41:56;;;;;;;;;;;;;;;23.32;46.21;95892.34;622999;226;67489;-59
2023/04/14 03:44:26;;;;;;;;;;;;;;;23.31;46.22;95886.20;623845;227;65054;-59
2023/04/14 03:46:54;;;;;;;;;;;;;;;23.29;43.50;95891.08;623860;227;67326;-60
2023/04/14 03:49:22;;;;;;;;;;;;;;;23.30;45.01;95897.23;621248;227;66983;-59
2023/04/14 03:51:52;;;;;;;;;;;;;;;23.30;45.52;95889.19;618519;229;65207;-59
2023/04/14 03:54:21;;;;;;;;;;;;;;;23.29;44.48;95892.98;618922;228;65093;-59
2023/04/14 03:56:50;;;;;;;;;;;;;;;23.29;45.52;95895.66;618685;229;67131;-59
2023/04/14 03:59:19;;;;;;;;;;;;;;;23.28;44.56;95896.77;618469;228;65036;-59
2023/04/14 04:01:47;;;;;;;;;;;;;;;23.28;44.50;95886.83;618835;229;68037;-59
2023/04/14 04:04:16;;;;;;;;;;;;;;;23.27;45.69;95893.28;618384;229;65816;-59
2023/04/14 04:06:44;;;;;;;;;;;;;;;23.25;44.72;95893.61;618281;229;63935;-59
2023/04/14 04:09:14;;;;;;;;;;;;;;;23.25;46.21;95901.64;619233;229;67375;-59
2023/04/14 04:11:43;;;;;;;;;;;;;;;23.25;45.17;95898.97;618869;228;66853;-59
2023/04/14 04:14:12;;;;;;;;;;;;;;;23.24;43.77;95900.08;613050;230;68703;-60
2023/04/14 04:16:41;;;;;;;;;;;;;;;23.24;44.82;95897.40;613820;229;67268;-59
2023/04/14 04:19:10;;;;;;;;;;;;;;;23.23;41.62;95895.80;615342;226;70742;-59
2023/04/14 04:21:44;;;;;;;;;;;;;;;23.22;42.75;95899.59;607322;233;68407;-59
2023/04/14 04:24:11;;;;;;;;;;;;;;;23.22;45.94;95899.59;613484;229;64783;-59
2023/04/14 04:26:40;;;;;;;;;;;;;;;23.23;44.90;95900.37;618674;228;67422;-58
2023/04/14 04:29:10;;;;;;;;;;;;;;;23.21;43.98;95898.00;618385;227;62983;-59
2023/04/14 04:31:39;;;;;;;;;;;;;;;23.20;46.37;95901.79;614892;228;67363;-59
2023/04/14 04:34:07;;;;;;;;;;;;;;;23.21;44.72;95907.94;617688;228;67147;-58
2023/04/14 04:36:37;;;;;;;;;;;;;;;23.20;46.57;95896.43;618198;229;63013;-58
2023/04/14 04:39:05;;;;;;;;;;;;;;;23.20;46.04;95895.64;618267;229;67294;-58
2023/04/14 04:41:34;;;;;;;;;;;;;;;23.20;45.41;95901.00;618299;229;45661;-59
2023/04/14 04:44:02;;;;;;;;;;;;;;;23.18;46.80;95895.94;618332;229;63024;-58
2023/04/14 04:46:45;;;;;;;;;;;;;;;23.18;45.43;95905.88;618343;229;48198;-59
2023/04/14 04:49:14;;;;;;;;;;;;;;;23.18;47.47;95892.48;618312;229;64992;-59
2023/04/14 04:51:42;;;;;;;;;;;;;;;23.16;45.32;95868.69;618938;229;65189;-58
2023/04/14 04:54:10;;;;;;;;;;;;;;;23.15;43.35;95883.17;620046;229;67088;-59
2023/04/14 04:56:38;;;;;;;;;;;;;;;23.15;47.43;95880.49;619328;228;66884;-60
2023/04/14 04:59:07;;;;;;;;;;;;;;;23.16;47.01;95881.27;619411;228;62844;-57
2023/04/14 05:01:35;;;;;;;;;;;;;;;23.15;48.09;95877.81;620834;227;65277;-58
2023/04/14 05:04:02;;;;;;;;;;;;;;;23.15;45.30;95877.02;621266;224;66544;-58
2023/04/14 05:06:33;;;;;;;;;;;;;;;23.14;45.36;95870.88;617126;225;65062;-58
2023/04/14 05:09:00;;;;;;;;;;;;;;;23.12;45.00;95862.36;612686;228;64897;-58
2023/04/14 05:11:28;;;;;;;;;;;;;;;23.14;45.96;95862.06;619585;228;63320;-58
2023/04/14 05:13:55;;;;;;;;;;;;;;;23.13;46.10;95863.92;617936;229;64998;-59
2023/04/14 05:16:24;;;;;;;;;;;;;;;23.14;44.45;95870.09;615105;228;66932;-59
2023/04/14 05:18:51;;;;;;;;;;;;;;;23.12;45.86;95867.72;611530;230;64663;-59
2023/04/14 05:21:19;;;;;;;;;;;;;;;23.12;42.82;95858.89;611432;230;63042;-59
2023/04/14 05:23:47;;;;;;;;;;;;;;;23.11;46.87;95863.47;615267;229;66876;-60
2023/04/14 05:26:15;;;;;;;;;;;;;;;23.10;46.45;95867.23;614245;229;64645;-60
2023/04/14 05:28:43;;;;;;;;;;;;;;;23.10;48.46;95859.19;613326;230;64995;-59
2023/04/14 05:31:10;;;;;;;;;;;;;;;23.10;46.92;95863.77;613149;230;67215;-59
2023/04/14 05:33:38;;;;;;;;;;;;;;;23.09;44.81;95854.95;615722;229;67451;-59
2023/04/14 05:36:06;;;;;;;;;;;;;;;23.08;44.53;95856.06;614174;230;62679;-59
2023/04/14 05:38:35;;;;;;;;;;;;;;;23.08;46.62;95853.38;612255;230;67285;-59
2023/04/14 05:41:03;;;;;;;;;;;;;;;23.08;44.09;95857.92;616194;230;66853;-59
2023/04/14 05:43:30;;;;;;;;;;;;;;;23.07;47.20;95849.10;606826;230;64861;-59
2023/04/14 05:45:59;;;;;;;;;;;;;;;23.07;46.93;95851.00;614630;230;67106;-59
2023/04/14 05:48:29;;;;;;;;;;;;;;;23.06;46.77;95842.17;611656;230;64882;-59
2023/04/14 05:50:56;;;;;;;;;;;;;;;23.05;47.29;95824.50;611623;230;62588;-60
2023/04/14 05:53:23;;;;;;;;;;;;;;;23.03;45.80;95826.73;611539;230;64712;-59
2023/04/14 05:55:55;;;;;;;;;;;;;;;23.03;47.39;95832.09;611216;230;48674;-59
2023/04/14 05:58:25;;;;;;;;;;;;;;;23.02;47.89;95828.59;613964;230;65010;-59
2023/04/14 06:00:51;;;;;;;;;;;;;;;23.02;46.23;95835.84;616268;230;65336;-59
2023/04/14 06:03:19;;;;;;;;;;;;;;;23.01;44.75;95818.20;612413;230;64956;-60
2023/04/14 06:05:47;;;;;;;;;;;;;;;23.00;44.57;95822.78;614849;230;63081;-60
2023/04/14 06:08:16;;;;;;;;;;;;;;;23.00;46.85;95817.42;611401;230;67244;-60
2023/04/14 06:10:43;;;;;;;;;;;;;;;22.99;40.13;95810.47;612413;230;67022;-59
2023/04/14 06:13:11;;;;;;;;;;;;;;;22.99;44.25;95818.50;611811;230;65297;-59
2023/04/14 06:15:38;;;;;;;;;;;;;;;23.00;47.74;95805.92;612686;229;67302;-60
2023/04/14 06:18:06;;;;;;;;;;;;;;;22.99;46.57;95817.72;614221;230;67054;-59
2023/04/14 06:20:35;;;;;;;;;;;;;;;22.98;44.14;95810.80;611591;230;65038;-59
2023/04/14 06:23:02;;;;;;;;;;;;;;;22.98;47.53;95814.26;611557;230;64980;-59
2023/04/14 06:25:30;;;;;;;;;;;;;;;22.98;47.07;95808.11;612369;230;65264;-59
2023/04/14 06:27:57;;;;;;;;;;;;;;;22.98;46.20;95800.86;614594;230;65040;-59
2023/04/14 06:30:27;;;;;;;;;;;;;;;22.98;47.56;95794.72;614195;230;67215;-59
2023/04/14 06:32:54;;;;;;;;;;;;;;;22.98;49.17;95800.08;612701;230;65752;-59
2023/04/14 06:35:22;;;;;;;;;;;;;;;22.97;47.25;95812.69;611491;230;65119;-59
2023/04/14 06:37:51;;;;;;;;;;;;;;;22.98;47.23;95803.54;611393;230;67364;-59
2023/04/14 06:40:18;;;;;;;;;;;;;;;22.97;45.46;95801.16;611629;230;66671;-59
2023/04/14 06:42:48;;;;;;;;;;;;;;;22.98;44.76;95802.76;611636;230;64915;-59
2023/04/14 06:45:16;;;;;;;;;;;;;;;22.98;47.08;95808.11;611570;230;67251;-59
2023/04/14 06:47:46;;;;;;;;;;;;;;;22.98;47.53;95797.40;612570;230;67368;-59
2023/04/14 06:50:13;;;;;;;;;;;;;;;22.97;49.49;95795.80;611598;230;62851;-60
2023/04/14 06:52:40;;;;;;;;;;;;;;;22.96;49.42;95794.23;614595;230;67197;-58
2023/04/14 06:55:08;;;;;;;;;;;;;;;22.96;45.93;95805.73;606681;230;64950;-60
2023/04/14 06:57:36;;;;;;;;;;;;;;;22.96;46.68;95800.38;606034;232;65057;-60
2023/04/14 07:00:06;;;;;;;;;;;;;;;22.96;47.69;95807.63;611599;230;67223;-60
2023/04/14 07:02:33;;;;;;;;;;;;;;;22.95;45.18;95809.50;611580;230;67120;-60
2023/04/14 07:05:01;;;;;;;;;;;;;;;22.96;48.58;95800.38;611573;230;65036;-58
2023/04/14 07:07:28;;;;;;;;;;;;;;;22.95;47.47;95789.96;613209;230;66907;-58
2023/04/14 07:09:55;;;;;;;;;;;;;;;22.96;48.84;95778.16;614700;230;67068;-58
2023/04/14 07:12:23;;;;;;;;;;;;;;;22.94;48.05;95770.39;611541;230;65045;-58
2023/04/14 07:14:51;;;;;;;;;;;;;;;22.94;47.57;95770.39;614868;230;65225;-58
2023/04/14 07:17:19;;;;;;;;;;;;;;;22.95;48.32;95757.81;615836;229;66923;-57
2023/04/14 07:19:46;;;;;;;;;;;;;;;22.93;46.06;95760.79;611616;230;65191;-58
2023/04/14 07:22:14;;;;;;;;;;;;;;;22.94;45.85;95753.54;612081;230;67295;-58
2023/04/14 07:24:42;;;;;;;;;;;;;;;22.93;48.16;95754.65;615057;230;64621;-58
2023/04/14 07:27:13;;;;;;;;;;;;;;;22.92;48.55;95737.02;613304;230;62930;-58
2023/04/14 07:29:39;;;;;;;;;;;;;;;22.93;47.47;95749.30;612650;230;67936;-58
2023/04/14 07:32:07;;;;;;;;;;;;;;;22.92;45.81;95742.38;614757;230;64985;-58
2023/04/14 07:34:34;;;;;;;;;;;;;;;22.92;47.63;95745.83;611640;230;62914;-58
2023/04/14 07:37:02;;;;;;;;;;;;;;;22.91;48.59;95749.59;611528;230;64975;-60
2023/04/14 07:39:30;;;;;;;;;;;;;;;22.91;48.64;95749.59;611531;230;64520;-58
2023/04/14 07:41:57;;;;;;;;;;;;;;;22.92;47.80;95739.69;613164;230;63047;-58
2023/04/14 07:44:25;;;;;;;;;;;;;;;22.89;47.13;95735.75;613809;230;67329;-58
2023/04/14 07:46:52;;;;;;;;;;;;;;;22.90;46.41;95728.49;614981;230;64916;-58
2023/04/14 07:49:20;;;;;;;;;;;;;;;22.89;47.38;95725.03;611902;230;63013;-58
2023/04/14 07:51:48;;;;;;;;;;;;;;;22.90;47.85;95744.56;611543;230;65038;-58
2023/04/14 07:54:15;;;;;;;;;;;;;;;22.89;47.64;95742.97;613812;230;66847;-58
2023/04/14 07:56:43;;;;;;;;;;;;;;;22.89;46.60;95751.00;616241;230;65101;-58
2023/04/14 07:59:11;;;;;;;;;;;;;;;22.88;47.78;95730.69;613335;230;67204;-58
2023/04/14 08:01:38;;;;;;;;;;;;;;;22.88;47.48;95736.05;611567;230;67320;-58
2023/04/14 08:04:06;;;;;;;;;;;;;;;22.88;46.75;95733.37;611564;230;65072;-58
2023/04/14 08:06:33;;;;;;;;;;;;;;;22.88;47.45;95741.41;611503;230;67259;-58
2023/04/14 08:09:01;;;;;;;;;;;;;;;22.87;49.42;95719.19;611579;230;67149;-58
2023/04/14 08:11:28;;;;;;;;;;;;;;;22.87;49.23;95723.77;611129;230;65023;-58
2023/04/14 08:13:57;;;;;;;;;;;;;;;22.86;46.87;95719.48;609723;232;67243;-58
2023/04/14 08:16:25;;;;;;;;;;;;;;;22.85;46.99;95718.70;611575;230;66916;-59
2023/04/14 08:18:52;;;;;;;;;;;;;;;22.85;48.11;95718.70;612434;230;65067;-59
2023/04/14 08:21:20;;;;;;;;;;;;;;;22.83;45.29;95716.36;615510;230;66935;-58
2023/04/14 08:23:48;;;;;;;;;;;;;;;22.86;49.13;95727.53;613003;230;67027;-59
2023/04/14 08:26:16;;;;;;;;;;;;;;;22.85;46.73;95718.70;614475;230;62962;-59
2023/04/14 08:28:43;;;;;;;;;;;;;;;22.84;49.62;95711.78;611572;230;67505;-59
2023/04/14 08:31:11;;;;;;;;;;;;;;;22.83;46.05;95720.91;611548;230;67152;-58
2023/04/14 08:33:38;;;;;;;;;;;;;;;22.83;47.02;95716.36;615331;230;63033;-59
2023/04/14 08:36:06;;;;;;;;;;;;;;;22.83;48.23;95712.88;613387;230;66978;-59
2023/04/14 08:38:33;;;;;;;;;;;;;;;22.82;47.75;95717.44;613540;230;67007;-59
2023/04/14 08:41:02;;;;;;;;;;;;;;;22.83;48.45;95719.04;615675;230;65121;-59
2023/04/14 08:43:30;;;;;;;;;;;;;;;22.82;46.51;95730.84;612450;230;67261;-59
2023/04/14 08:45:58;;;;;;;;;;;;;;;22.82;48.52;95733.52;615093;230;64932;-59
2023/04/14 08:48:26;;;;;;;;;;;;;;;22.82;46.58;95746.13;611565;230;63042;-59
2023/04/14 08:50:56;;;;;;;;;;;;;;;22.81;46.19;95739.98;611564;230;70597;-59
2023/04/14 08:53:26;;;;;;;;;;;;;;;22.81;45.46;95739.98;607776;230;64964;-59
2023/04/14 08:55:54;;;;;;;;;;;;;;;22.81;47.56;95750.70;614828;230;65052;-59
2023/04/14 08:58:22;;;;;;;;;;;;;;;22.81;48.71;95752.59;611546;231;65041;-59
2023/04/14 09:00:51;;;;;;;;;;;;;;;22.80;48.44;95745.64;611592;230;65902;-59
2023/04/14 09:03:19;;;;;;;;;;;;;;;22.79;48.90;95736.04;611825;230;64952;-59
2023/04/14 09:05:46;;;;;;;;;;;;;;;22.79;48.89;95744.86;616489;230;67225;-59
2023/04/14 09:08:15;;;;;;;;;;;;;;;22.80;47.82;95759.03;616873;230;66677;-59
2023/04/14 09:10:42;;;;;;;;;;;;;;;22.79;49.53;95726.11;613538;230;63025;-59
2023/04/14 09:13:13;;;;;;;;;;;;;;;22.77;48.85;95696.17;615914;230;64747;-59
2023/04/14 09:15:40;;;;;;;;;;;;;;;22.77;49.75;95692.70;611579;230;65022;-59
2023/04/14 09:18:09;;;;;;;;;;;;;;;22.77;49.80;95714.13;611670;230;62912;-59
2023/04/14 09:20:37;;;;;;;;;;;;;;;22.77;50.16;95728.30;611580;231;67552;-59
2023/04/14 09:23:07;;;;;;;;;;;;;;;22.76;47.87;95740.13;615330;230;66900;-59
2023/04/14 09:25:35;;;;;;;;;;;;;;;22.77;48.87;95740.91;611521;230;65097;-59
2023/04/14 09:28:03;;;;;;;;;;;;;;;22.77;48.75;95744.38;613296;230;66949;-59
2023/04/14 09:30:31;;;;;;;;;;;;;;;22.78;48.46;95742.48;616655;230;66995;-59
2023/04/14 09:32:58;;;;;;;;;;;;;;;22.77;50.22;95744.38;613859;230;65043;-59
2023/04/14 09:35:27;;;;;;;;;;;;;;;22.76;49.16;95739.34;611758;230;66904;-59
2023/04/14 09:37:55;;;;;;;;;;;;;;;22.75;50.87;95733.21;611607;230;67074;-58
2023/04/14 09:40:29;;;;;;;;;;;;;;;22.74;47.12;95747.69;613913;230;65001;-58
2023/04/14 09:42:57;;;;;;;;;;;;;;;22.74;49.60;95747.69;613693;230;67506;-58
2023/04/14 09:45:32;;;;;;;;;;;;;;;22.73;48.06;95748.80;611674;230;67107;-58
2023/04/14 09:48:07;;;;;;;;;;;;;;;22.74;49.83;95741.55;609442;230;63040;-59
2023/04/14 09:50:36;;;;;;;;;;;;;;;22.73;49.68;95740.77;611531;230;67341;-60
2023/04/14 09:53:03;;;;;;;;;;;;;;;22.73;48.30;95754.15;611770;230;67169;-60
2023/04/14 09:55:31;;;;;;;;;;;;;;;22.72;49.20;95757.91;613348;230;65065;-60
2023/04/14 09:57:58;;;;;;;;;;;;;;;22.71;48.94;95763.59;615196;230;67375;-60
2023/04/14 10:00:26;;;;;;;;;;;;;;;22.70;46.38;95738.70;611635;230;65153;-60
2023/04/14 10:02:54;;;;;;;;;;;;;;;22.71;48.18;95737.59;611574;230;62825;-60
2023/04/14 10:05:24;;;;;;;;;;;;;;;22.71;50.18;95734.92;611486;230;67284;-60
2023/04/14 10:07:51;;;;;;;;;;;;;;;22.70;48.62;95733.36;611530;230;67076;-60
2023/04/14 10:10:19;;;;;;;;;;;;;;;22.70;47.08;95717.28;613785;230;65028;-60
2023/04/14 10:12:46;;;;;;;;;;;;;;;22.70;50.37;95714.61;613214;230;67228;-60
2023/04/14 10:15:14;;;;;;;;;;;;;;;22.70;48.71;95717.28;612581;230;67158;-59
2023/04/14 10:17:42;;;;;;;;;;;;;;;22.69;47.98;95713.02;612785;230;62713;-60
2023/04/14 10:20:10;;;;;;;;;;;;;;;22.69;47.48;95721.05;614239;230;64879;-60
2023/04/14 10:22:38;;;;;;;;;;;;;;;22.70;50.17;95725.32;613480;230;64409;-60
2023/04/14 10:25:06;;;;;;;;;;;;;;;22.69;48.41;95712.23;611655;230;65061;-60
2023/04/14 10:27:33;;;;;;;;;;;;;;;22.68;49.41;95706.09;611576;230;66999;-60
2023/04/14 10:30:01;;;;;;;;;;;;;;;22.68;48.63;95719.48;611990;230;67044;-60
2023/04/14 10:32:31;;;;;;;;;;;;;;;22.68;49.95;95722.16;612856;231;62755;-60
2023/04/14 10:35:04;;;;;;;;;;;;;;;22.68;48.85;95735.55;611912;230;66945;-60
2023/04/14 10:37:32;;;;;;;;;;;;;;;22.66;48.42;95724.35;616699;230;64786;-59
2023/04/14 10:40:04;;;;;;;;;;;;;;;22.66;47.79;95740.42;616358;230;63039;-59
2023/04/14 10:42:35;;;;;;;;;;;;;;;22.67;48.53;95744.70;613691;230;66814;-59
2023/04/14 10:45:04;;;;;;;;;;;;;;;22.66;48.24;95758.38;613209;230;71267;-59
2023/04/14 10:47:34;;;;;;;;;;;;;;;22.66;49.81;95748.45;616859;230;63076;-59
2023/04/14 10:50:12;;;;;;;;;;;;;;;22.65;48.85;95764.85;616888;230;66699;-59
2023/04/14 10:52:41;;;;;;;;;;;;;;;22.65;50.84;95754.92;617006;230;64769;-59
2023/04/14 10:55:08;;;;;;;;;;;;;;;22.64;46.25;95761.36;616533;230;65161;-59
2023/04/14 10:57:37;;;;;;;;;;;;;;;22.65;50.55;95775.56;616937;230;67258;-59
2023/04/14 11:00:10;;;;;;;;;;;;;;;22.63;49.03;95769.72;616904;230;64791;-59
2023/04/14 11:02:37;;;;;;;;;;;;;;;22.63;49.38;95765.15;616109;230;65221;-59
2023/04/14 11:05:07;;;;;;;;;;;;;;;22.63;48.39;95754.44;616931;230;67000;-59
2023/04/14 11:07:40;;;;;;;;;;;;;;;22.63;48.52;95769.72;616925;230;64815;-59
2023/04/14 11:10:23;;;;;;;;;;;;;;;22.63;50.98;95778.53;616800;230;65114;-59
2023/04/14 11:12:56;;;;;;;;;;;;;;;22.61;49.89;95783.41;616956;230;66923;-59
2023/04/14 11:15:23;;;;;;;;;;;;;;;22.62;47.67;95771.62;616960;229;66942;-59
2023/04/14 11:17:51;;;;;;;;;;;;;;;22.61;48.83;95773.48;616896;230;65044;-59
2023/04/14 11:20:19;;;;;;;;;;;;;;;22.60;49.70;95771.13;616897;230;67005;-59
2023/04/14 11:22:48;;;;;;;;;;;;;;;22.61;48.28;95794.12;616996;229;64720;-59
2023/04/14 11:25:17;;;;;;;;;;;;;;;22.60;49.90;95773.80;616884;230;62999;-59
2023/04/14 11:27:46;;;;;;;;;;;;;;;22.59;47.96;95781.05;616771;230;66904;-59
2023/04/14 11:30:15;;;;;;;;;;;;;;;22.60;49.39;95795.23;616920;230;66885;-59
2023/04/14 11:32:52;;;;;;;;;;;;;;;22.58;47.91;95792.84;616863;230;63965;-59
2023/04/14 11:35:20;;;;;;;;;;;;;;;22.59;48.46;95786.41;616973;230;66780;-59
2023/04/14 11:37:51;;;;;;;;;;;;;;;22.59;50.72;95790.98;616750;230;45185;-59
2023/04/14 11:40:19;;;;;;;;;;;;;;;22.58;49.87;95776.00;616927;230;62280;-59
2023/04/14 11:42:48;;;;;;;;;;;;;;;22.57;48.33;95783.25;616941;230;64844;-59
2023/04/14 11:45:15;;;;;;;;;;;;;;;22.57;51.41;95793.95;616749;230;64948;-59
2023/04/14 11:48:01;;;;;;;;;;;;;;;22.57;48.88;95798.53;616906;230;63001;-59
2023/04/14 11:50:30;;;;;;;;;;;;;;;22.57;50.46;95798.53;616971;230;64610;-59
2023/04/14 11:52:59;;;;;;;;;;;;;;;22.56;50.62;95792.39;616924;230;64733;-59
2023/04/14 11:55:27;;;;;;;;;;;;;;;22.56;50.13;95797.75;616616;230;65083;-60
2023/04/14 11:57:56;;;;;;;;;;;;;;;22.55;47.31;95822.14;616935;230;66853;-60
2023/04/14 12:00:23;;;;;;;;;;;;;;;22.55;48.19;95816.78;616895;230;64797;-60
2023/04/14 12:02:51;;;;;;;;;;;;;;;22.55;49.67;95800.72;617013;230;64901;-60
2023/04/14 12:05:24;;;;;;;;;;;;;;;22.55;48.74;95811.43;616963;230;66709;-60
2023/04/14 12:07:53;;;;;;;;;;;;;;;22.55;49.23;95816.78;616903;230;66850;-60
2023/04/14 12:10:21;;;;;;;;;;;;;;;22.54;48.21;95810.64;616756;230;65095;-60
2023/04/14 12:12:48;;;;;;;;;;;;;;;22.54;48.50;95831.28;616935;230;67309;-60
2023/04/14 12:15:17;;;;;;;;;;;;;;;22.54;50.21;95823.25;616917;230;66852;-60
2023/04/14 12:17:44;;;;;;;;;;;;;;;22.53;47.13;95814.41;616929;230;62973;-60
2023/04/14 12:20:16;;;;;;;;;;;;;;;22.52;47.82;95810.16;616944;230;64656;-60
2023/04/14 12:22:44;;;;;;;;;;;;;;;22.53;48.12;95819.76;616904;230;64739;-60
2023/04/14 12:25:12;;;;;;;;;;;;;;;22.52;50.50;95818.19;616917;230;63165;-60
2023/04/14 12:27:40;;;;;;;;;;;;;;;22.51;49.10;95823.87;616942;230;66927;-60
2023/04/14 12:30:13;;;;;;;;;;;;;;;22.51;48.71;95826.55;616947;230;66823;-60
2023/04/14 12:32:40;;;;;;;;;;;;;;;22.51;49.54;95823.87;616687;230;65186;-60
2023/04/14 12:35:08;;;;;;;;;;;;;;;22.51;49.38;95821.98;616881;230;64732;-60
2023/04/14 12:37:37;;;;;;;;;;;;;;;22.50;47.90;95815.02;616909;230;66796;-60
2023/04/14 12:40:05;;;;;;;;;;;;;;;22.51;48.28;95807.81;616938;230;63024;-60
2023/04/14 12:42:40;;;;;;;;;;;;;;;22.50;49.46;95790.14;616873;230;66909;-61
2023/04/14 12:45:08;;;;;;;;;;;;;;;22.50;48.38;95809.67;615484;230;66784;-59
2023/04/14 12:47:36;;;;;;;;;;;;;;;22.51;50.89;95805.12;614065;230;65048;-59
2023/04/14 12:50:22;;;;;;;;;;;;;;;22.50;48.33;95830.30;613678;230;66855;-60
2023/04/14 12:52:49;;;;;;;;;;;;;;;22.48;48.83;95844.02;615683;230;64423;-60
2023/04/14 12:55:21;;;;;;;;;;;;;;;22.48;46.71;95853.91;616742;230;65066;-60
2023/04/14 12:57:52;;;;;;;;;;;;;;;22.48;49.45;95859.27;614160;230;64590;-60